Time;durP1;ratioP1;P1;durP2;ratioP2;P2;SDS_P1;SDS_P2;PMS_P1;PMS_P2;Temp;Humidity;BMP_temperature;BMP_pressure;BME280_temperature;BME280_humidity;BME280_pressure;Samples;Min_cycle;Max_cycle;Signal;HPM_P1;HPM_P2
2021/12/15 00:01:39;;;;;;;;;;;20.90;43.80;;;;;;5137523;27;19907;-58
2021/12/15 00:04:05;;;;;;;;;;;20.90;43.80;;;;;;5137521;27;19952;-58
2021/12/15 00:06:31;;;;;;;;;;;20.90;43.80;;;;;;5137248;27;19912;-58
2021/12/15 00:08:58;;;;;;;;;;;20.90;43.80;;;;;;5137266;27;19964;-58
2021/12/15 00:11:32;;;;;;;;;;;20.90;43.80;;;;;;5137092;27;19907;-58
2021/12/15 00:13:58;;;;;;;;;;;20.90;43.80;;;;;;5137423;27;19907;-59
2021/12/15 00:16:23;;;;;;;;;;;20.90;43.80;;;;;;5137056;27;19915;-59
2021/12/15 00:18:49;;;;;;;;;;;20.90;43.80;;;;;;5137071;27;19913;-58
2021/12/15 00:21:15;;;;;;;;;;;20.90;43.80;;;;;;5136973;27;19912;-58
2021/12/15 00:23:42;;;;;;;;;;;20.90;43.80;;;;;;5136800;27;19907;-59
2021/12/15 00:26:07;;;;;;;;;;;20.80;43.80;;;;;;5137121;27;20053;-59
2021/12/15 00:28:33;;;;;;;;;;;20.80;43.80;;;;;;5118484;27;19953;-59
2021/12/15 00:30:59;;;;;;;;;;;20.90;43.80;;;;;;5136868;27;20390;-59
2021/12/15 00:33:24;;;;;;;;;;;20.80;43.80;;;;;;5136752;27;20320;-58
2021/12/15 00:35:50;;;;;;;;;;;20.80;43.80;;;;;;5136776;27;19911;-58
2021/12/15 00:38:16;;;;;;;;;;;20.80;43.80;;;;;;5136920;27;19908;-58
2021/12/15 00:40:42;;;;;;;;;;;20.80;43.90;;;;;;5136917;27;19914;-58
2021/12/15 00:43:07;;;;;;;;;;;20.80;43.80;;;;;;5136787;27;19907;-58
2021/12/15 00:45:33;;;;;;;;;;;20.80;43.80;;;;;;5136854;27;19915;-58
2021/12/15 00:47:59;;;;;;;;;;;20.80;43.80;;;;;;5136441;27;19915;-58
2021/12/15 00:50:26;;;;;;;;;;;20.80;43.80;;;;;;5136678;27;19912;-58
2021/12/15 00:52:52;;;;;;;;;;;20.80;43.80;;;;;;5136427;27;19984;-58
2021/12/15 00:55:19;;;;;;;;;;;20.80;43.80;;;;;;5136389;27;19943;-58
2021/12/15 00:57:45;;;;;;;;;;;20.80;43.90;;;;;;5136323;27;19913;-59
2021/12/15 01:00:13;;;;;;;;;;;20.80;43.90;;;;;;5136053;27;19961;-59
2021/12/15 01:02:39;;;;;;;;;;;20.80;43.80;;;;;;5136284;27;19908;-58
2021/12/15 01:05:04;;;;;;;;;;;20.70;43.80;;;;;;5136241;27;19998;-58
2021/12/15 01:07:30;;;;;;;;;;;20.80;43.90;;;;;;5135978;27;20347;-58
2021/12/15 01:09:57;;;;;;;;;;;20.70;43.90;;;;;;5136032;27;19953;-58
2021/12/15 01:12:50;;;;;;;;;;;20.80;43.80;;;;;;5136038;27;20252;-57
2021/12/15 01:20:32;;;;;;;;;;;20.70;43.90;;;;;;5136213;27;19948;-59
2021/12/15 01:22:59;;;;;;;;;;;20.70;43.90;;;;;;5135790;27;20371;-58
2021/12/15 01:25:27;;;;;;;;;;;20.70;43.80;;;;;;5117349;27;20327;-58
2021/12/15 01:27:52;;;;;;;;;;;20.70;43.90;;;;;;5135571;27;19908;-58
2021/12/15 01:30:20;;;;;;;;;;;20.70;43.80;;;;;;5135871;27;19946;-58
2021/12/15 01:32:46;;;;;;;;;;;20.70;43.90;;;;;;5135579;27;19952;-58
2021/12/15 01:35:11;;;;;;;;;;;20.70;43.90;;;;;;5135003;27;19915;-58
2021/12/15 01:37:37;;;;;;;;;;;20.70;43.90;;;;;;5135553;27;19946;-58
2021/12/15 01:40:04;;;;;;;;;;;20.70;43.90;;;;;;5135319;27;19980;-58
2021/12/15 01:42:32;;;;;;;;;;;20.70;43.90;;;;;;5135367;27;19915;-58
2021/12/15 01:47:43;;;;;;;;;;;20.70;43.90;;;;;;5135418;27;19914;-58
2021/12/15 01:50:09;;;;;;;;;;;20.70;43.90;;;;;;5135307;27;19907;-58
2021/12/15 01:52:35;;;;;;;;;;;20.70;43.90;;;;;;5135687;27;19918;-58
2021/12/15 01:55:09;;;;;;;;;;;20.70;43.90;;;;;;5135095;27;19907;-58
2021/12/15 01:57:36;;;;;;;;;;;20.70;43.90;;;;;;5135171;27;19920;-58
2021/12/15 02:00:05;;;;;;;;;;;20.70;43.90;;;;;;5134411;27;20422;-58
2021/12/15 02:02:30;;;;;;;;;;;20.70;43.90;;;;;;5134167;28;19908;-58
2021/12/15 02:04:56;;;;;;;;;;;20.60;43.90;;;;;;5134465;28;19977;-58
2021/12/15 02:07:22;;;;;;;;;;;20.60;43.90;;;;;;5134114;28;19930;-58
2021/12/15 02:12:18;;;;;;;;;;;20.60;43.90;;;;;;5134427;28;19918;-58
2021/12/15 02:14:44;;;;;;;;;;;20.60;44.00;;;;;;5134054;28;19923;-58
2021/12/15 02:17:09;;;;;;;;;;;20.60;43.90;;;;;;5134212;28;19915;-58
2021/12/15 02:19:35;;;;;;;;;;;20.60;43.90;;;;;;5133975;28;20376;-58
2021/12/15 02:22:01;;;;;;;;;;;20.60;44.00;;;;;;5133852;28;19907;-58
2021/12/15 02:24:27;;;;;;;;;;;20.60;43.90;;;;;;5133924;28;20035;-58
2021/12/15 02:26:58;;;;;;;;;;;20.60;43.90;;;;;;5134104;28;19949;-58
2021/12/15 02:29:24;;;;;;;;;;;20.60;43.90;;;;;;5133854;28;19914;-58
2021/12/15 02:34:33;;;;;;;;;;;20.60;44.00;;;;;;5133688;28;20291;-58
2021/12/15 02:37:19;;;;;;;;;;;20.60;43.90;;;;;;5133652;28;19923;-58
2021/12/15 02:39:50;;;;;;;;;;;20.60;44.00;;;;;;5133634;28;20389;-58
2021/12/15 02:42:15;;;;;;;;;;;20.60;43.90;;;;;;5133442;28;19914;-58
2021/12/15 02:44:43;;;;;;;;;;;20.60;44.00;;;;;;5133094;27;19911;-58
2021/12/15 02:47:19;;;;;;;;;;;20.60;44.00;;;;;;5132909;28;19907;-58
2021/12/15 02:49:45;;;;;;;;;;;20.60;43.90;;;;;;5133594;28;19918;-58
2021/12/15 02:52:11;;;;;;;;;;;20.50;43.90;;;;;;5133489;28;19908;-58
2021/12/15 02:54:36;;;;;;;;;;;20.50;44.00;;;;;;5133475;28;19913;-58
2021/12/15 02:57:10;;;;;;;;;;;20.60;44.00;;;;;;5133626;28;19954;-58
2021/12/15 02:59:52;;;;;;;;;;;20.50;44.00;;;;;;5072391;28;1708513;-58
2021/12/15 03:05:09;;;;;;;;;;;20.60;44.00;;;;;;5134638;28;19973;-58
2021/12/15 03:08:06;;;;;;;;;;;20.50;44.00;;;;;;5134202;28;19919;-58
2021/12/15 03:15:51;;;;;;;;;;;20.60;44.00;;;;;;5134293;28;19953;-58
2021/12/15 03:18:18;;;;;;;;;;;20.50;44.00;;;;;;5134067;28;19908;-58
2021/12/15 03:20:55;;;;;;;;;;;20.50;44.00;;;;;;5134333;28;20292;-58
2021/12/15 03:23:27;;;;;;;;;;;20.50;44.00;;;;;;5134091;28;20316;-58
2021/12/15 03:25:54;;;;;;;;;;;20.50;44.00;;;;;;5134068;28;20430;-58
2021/12/15 03:36:40;;;;;;;;;;;20.50;44.00;;;;;;5133995;28;19978;-58
2021/12/15 03:39:08;;;;;;;;;;;20.50;44.10;;;;;;5133892;28;19915;-58
2021/12/15 03:41:34;;;;;;;;;;;20.50;44.10;;;;;;5134044;28;19915;-58
2021/12/15 03:44:00;;;;;;;;;;;20.50;44.10;;;;;;5133851;28;19907;-58
2021/12/15 03:46:26;;;;;;;;;;;20.50;44.00;;;;;;5134145;28;19954;-58
2021/12/15 03:48:51;;;;;;;;;;;20.50;44.10;;;;;;5133845;28;20286;-58
2021/12/15 03:51:17;;;;;;;;;;;20.50;44.00;;;;;;5133963;28;19930;-58
2021/12/15 03:53:43;;;;;;;;;;;20.50;44.10;;;;;;5133737;28;19998;-58
2021/12/15 03:56:11;;;;;;;;;;;20.50;44.10;;;;;;5115222;27;19951;-58
2021/12/15 03:58:37;;;;;;;;;;;20.50;44.10;;;;;;5137336;27;19908;-58
2021/12/15 04:01:06;;;;;;;;;;;20.50;44.10;;;;;;5137286;27;19919;-58
2021/12/15 04:03:33;;;;;;;;;;;20.50;44.10;;;;;;5137284;27;19907;-59
2021/12/15 04:06:00;;;;;;;;;;;20.50;44.10;;;;;;5137393;27;19907;-58
2021/12/15 04:08:25;;;;;;;;;;;20.50;44.10;;;;;;5137207;27;20358;-58
2021/12/15 04:10:51;;;;;;;;;;;20.50;44.10;;;;;;5137387;27;19914;-58
2021/12/15 04:13:17;;;;;;;;;;;20.50;44.10;;;;;;5136987;27;20429;-58
2021/12/15 04:15:46;;;;;;;;;;;20.50;44.10;;;;;;5137026;27;19915;-59
2021/12/15 04:18:12;;;;;;;;;;;20.50;44.20;;;;;;5137036;27;19914;-58
2021/12/15 04:20:38;;;;;;;;;;;20.50;44.10;;;;;;5137014;27;20321;-58
2021/12/15 04:23:04;;;;;;;;;;;20.50;44.10;;;;;;5136877;27;20265;-58
2021/12/15 04:25:31;;;;;;;;;;;20.50;44.20;;;;;;5137202;27;19952;-58
2021/12/15 04:27:59;;;;;;;;;;;20.50;44.10;;;;;;5136818;27;19915;-58
2021/12/15 04:30:26;;;;;;;;;;;20.50;44.20;;;;;;5136862;27;19912;-58
2021/12/15 04:32:52;;;;;;;;;;;20.40;44.20;;;;;;5136710;27;19959;-58
2021/12/15 04:35:18;;;;;;;;;;;20.40;44.10;;;;;;5136794;27;19907;-58
2021/12/15 04:37:44;;;;;;;;;;;20.50;44.20;;;;;;5136930;27;19915;-58
2021/12/15 04:40:11;;;;;;;;;;;20.40;44.20;;;;;;5136966;27;19915;-58
2021/12/15 04:42:38;;;;;;;;;;;20.50;44.10;;;;;;5136468;27;19930;-58
2021/12/15 04:45:04;;;;;;;;;;;20.40;44.20;;;;;;5136555;27;19952;-58
2021/12/15 04:47:30;;;;;;;;;;;20.40;44.20;;;;;;5136493;27;20316;-58
2021/12/15 04:49:56;;;;;;;;;;;20.40;44.20;;;;;;5136432;27;19908;-58
2021/12/15 04:52:23;;;;;;;;;;;20.40;44.20;;;;;;5136282;27;20386;-58
2021/12/15 04:54:49;;;;;;;;;;;20.40;44.30;;;;;;5136352;27;19908;-58
2021/12/15 04:57:16;;;;;;;;;;;20.40;44.20;;;;;;5117754;27;19925;-58
2021/12/15 04:59:41;;;;;;;;;;;20.40;44.20;;;;;;5136089;27;19919;-58
2021/12/15 05:02:08;;;;;;;;;;;20.40;44.20;;;;;;5136139;27;19960;-59
2021/12/15 05:04:33;;;;;;;;;;;20.50;44.20;;;;;;5136038;27;19907;-58
2021/12/15 05:06:59;;;;;;;;;;;20.40;44.20;;;;;;5136099;27;19907;-58
2021/12/15 05:09:24;;;;;;;;;;;20.40;44.20;;;;;;5135024;27;19912;-58
2021/12/15 05:11:50;;;;;;;;;;;20.50;44.20;;;;;;5136078;27;19907;-58
2021/12/15 05:14:17;;;;;;;;;;;20.40;44.20;;;;;;5135878;27;19907;-58
2021/12/15 05:16:42;;;;;;;;;;;20.40;44.20;;;;;;5135693;27;19916;-58
2021/12/15 05:19:08;;;;;;;;;;;20.50;44.20;;;;;;5135815;27;19914;-58
2021/12/15 05:21:33;;;;;;;;;;;20.50;44.10;;;;;;5135874;27;19914;-58
2021/12/15 05:24:07;;;;;;;;;;;20.50;44.10;;;;;;5135790;27;20038;-58
2021/12/15 05:26:33;;;;;;;;;;;20.50;44.10;;;;;;5135789;27;19970;-58
2021/12/15 05:28:58;;;;;;;;;;;20.50;44.10;;;;;;5135637;27;19907;-59
2021/12/15 05:31:24;;;;;;;;;;;20.50;44.10;;;;;;5135645;27;19954;-58
2021/12/15 05:33:49;;;;;;;;;;;20.60;44.00;;;;;;5135821;27;19949;-58
2021/12/15 05:36:15;;;;;;;;;;;20.60;44.00;;;;;;5135629;27;19915;-58
2021/12/15 05:38:40;;;;;;;;;;;20.70;44.00;;;;;;5135811;27;20231;-58
2021/12/15 05:41:06;;;;;;;;;;;20.70;44.00;;;;;;5135486;27;19908;-58
2021/12/15 05:43:31;;;;;;;;;;;20.70;43.90;;;;;;5135897;27;19908;-59
2021/12/15 05:45:57;;;;;;;;;;;20.70;43.90;;;;;;5135283;27;19908;-59
2021/12/15 05:48:23;;;;;;;;;;;20.70;43.90;;;;;;5135342;27;19915;-58
2021/12/15 05:50:50;;;;;;;;;;;20.80;43.90;;;;;;5116781;27;20432;-58
2021/12/15 05:53:16;;;;;;;;;;;20.70;43.90;;;;;;5135212;27;19947;-58
2021/12/15 05:55:42;;;;;;;;;;;20.80;43.80;;;;;;5135350;27;19954;-58
2021/12/15 05:58:07;;;;;;;;;;;20.80;43.90;;;;;;5135045;27;19912;-58
2021/12/15 06:00:34;;;;;;;;;;;20.80;43.80;;;;;;5134893;27;20094;-58
2021/12/15 06:03:00;;;;;;;;;;;20.80;43.90;;;;;;5134903;27;19907;-59
2021/12/15 06:05:25;;;;;;;;;;;20.80;43.80;;;;;;5134923;27;19914;-58
2021/12/15 06:07:51;;;;;;;;;;;20.80;43.80;;;;;;5135124;27;19908;-58
2021/12/15 06:10:19;;;;;;;;;;;20.80;43.80;;;;;;5134807;27;19907;-58
2021/12/15 06:12:47;;;;;;;;;;;20.90;43.80;;;;;;5134700;27;19918;-59
2021/12/15 06:15:14;;;;;;;;;;;20.90;43.80;;;;;;5134769;27;19911;-59
2021/12/15 06:17:39;;;;;;;;;;;20.90;43.80;;;;;;5134635;27;19919;-59
2021/12/15 06:20:05;;;;;;;;;;;20.90;43.80;;;;;;5134476;27;19907;-59
2021/12/15 06:22:33;;;;;;;;;;;20.90;43.80;;;;;;5134614;27;19951;-59
2021/12/15 06:24:58;;;;;;;;;;;20.90;43.80;;;;;;5134887;27;20270;-59
2021/12/15 06:27:24;;;;;;;;;;;20.90;43.80;;;;;;5134706;27;19907;-59
2021/12/15 06:29:51;;;;;;;;;;;20.90;43.80;;;;;;5134641;27;20420;-60
2021/12/15 06:32:16;;;;;;;;;;;21.00;43.80;;;;;;5134849;27;20282;-59
2021/12/15 06:34:42;;;;;;;;;;;21.00;43.80;;;;;;5134619;27;20200;-60
2021/12/15 06:37:08;;;;;;;;;;;21.00;43.80;;;;;;5134405;27;19922;-60
2021/12/15 06:39:34;;;;;;;;;;;21.00;43.80;;;;;;5134448;27;19921;-60
2021/12/15 06:42:00;;;;;;;;;;;21.00;43.80;;;;;;5134229;27;19907;-59
2021/12/15 06:44:25;;;;;;;;;;;21.00;43.80;;;;;;5134366;27;19907;-59
2021/12/15 06:47:18;;;;;;;;;;;21.00;43.80;;;;;;5115960;28;19960;-59
2021/12/15 07:00:32;;;;;;;;;;;21.10;43.80;;;;;;5134181;28;19991;-59
2021/12/15 07:02:58;;;;;;;;;;;21.00;43.80;;;;;;5133844;27;19951;-59
2021/12/15 07:05:25;;;;;;;;;;;21.00;43.80;;;;;;5139122;27;19911;-60
2021/12/15 07:07:51;;;;;;;;;;;20.80;44.30;;;;;;5134898;27;19918;-59
2021/12/15 07:10:19;;;;;;;;;;;20.60;44.80;;;;;;5145544;27;19997;-58
2021/12/15 07:12:45;;;;;;;;;;;20.80;44.60;;;;;;5143678;27;19915;-59
2021/12/15 07:15:11;;;;;;;;;;;20.90;44.20;;;;;;5136974;27;19915;-59
2021/12/15 07:17:39;;;;;;;;;;;21.00;44.10;;;;;;5135616;27;19988;-60
2021/12/15 07:20:30;;;;;;;;;;;21.10;43.90;;;;;;5136281;27;19922;-59
2021/12/15 07:22:50;;;;;;;;;;;21.10;43.90;;;;;;5136968;27;19951;-58
2021/12/15 07:25:16;;;;;;;;;;;21.10;43.90;;;;;;5135499;27;20003;-60
2021/12/15 07:27:41;;;;;;;;;;;21.00;43.90;;;;;;5136727;27;20057;-58
2021/12/15 07:30:08;;;;;;;;;;;21.10;43.90;;;;;;5149076;27;19923;-59
2021/12/15 07:32:33;;;;;;;;;;;21.10;44.00;;;;;;5147137;27;19912;-58
2021/12/15 07:34:59;;;;;;;;;;;21.20;44.00;;;;;;5139888;27;19926;-59
2021/12/15 07:37:24;;;;;;;;;;;21.20;44.00;;;;;;5125469;27;20306;-59
2021/12/15 07:39:59;;;;;;;;;;;21.20;44.00;;;;;;5150542;27;19915;-59
2021/12/15 07:43:23;;;;;;;;;;;21.30;43.90;;;;;;5119592;27;20033;-58
2021/12/15 07:45:15;;;;;;;;;;;21.20;44.00;;;;;;5127073;27;20033;-59
2021/12/15 07:47:40;;;;;;;;;;;21.30;44.00;;;;;;5140464;27;20009;-59
2021/12/15 07:50:06;;;;;;;;;;;21.30;44.00;;;;;;5144399;27;20267;-58
2021/12/15 07:52:31;;;;;;;;;;;21.30;43.90;;;;;;5145846;27;19919;-58
2021/12/15 07:54:57;;;;;;;;;;;21.20;44.10;;;;;;5145076;27;19912;-58
2021/12/15 07:57:23;;;;;;;;;;;21.30;44.00;;;;;;5149066;27;19978;-60
2021/12/15 07:59:49;;;;;;;;;;;21.30;44.00;;;;;;5122434;27;19923;-60
2021/12/15 08:02:15;;;;;;;;;;;21.40;44.00;;;;;;5147773;27;19959;-60
2021/12/15 08:04:41;;;;;;;;;;;21.40;44.00;;;;;;5137906;27;20410;-60
2021/12/15 08:07:06;;;;;;;;;;;21.40;44.20;;;;;;5138112;27;19996;-60
2021/12/15 08:09:32;;;;;;;;;;;21.40;44.10;;;;;;5137299;27;19961;-59
2021/12/15 08:11:57;;;;;;;;;;;21.30;44.10;;;;;;5146003;27;20353;-59
2021/12/15 08:14:23;;;;;;;;;;;21.30;44.10;;;;;;5142756;27;19993;-60
2021/12/15 08:16:49;;;;;;;;;;;21.40;44.20;;;;;;5137036;27;19919;-62
2021/12/15 08:19:16;;;;;;;;;;;21.40;44.10;;;;;;5128204;27;20362;-62
2021/12/15 08:21:42;;;;;;;;;;;21.40;44.20;;;;;;5142244;27;19955;-62
2021/12/15 08:24:07;;;;;;;;;;;21.40;44.20;;;;;;5141102;27;19950;-62
2021/12/15 08:26:33;;;;;;;;;;;21.40;44.20;;;;;;5142865;27;20418;-61
2021/12/15 08:28:59;;;;;;;;;;;21.40;44.30;;;;;;5141694;27;19911;-61
2021/12/15 08:31:24;;;;;;;;;;;21.40;44.30;;;;;;5142849;27;19915;-63
2021/12/15 08:33:50;;;;;;;;;;;21.50;44.20;;;;;;5143817;27;20069;-60
2021/12/15 08:36:15;;;;;;;;;;;21.50;44.20;;;;;;5151088;27;20010;-60
2021/12/15 08:38:42;;;;;;;;;;;21.50;44.30;;;;;;5146879;27;19998;-60
2021/12/15 08:41:09;;;;;;;;;;;21.50;44.20;;;;;;5136709;27;20472;-60
2021/12/15 08:43:35;;;;;;;;;;;21.50;44.30;;;;;;5140971;27;19919;-60
2021/12/15 08:46:21;;;;;;;;;;;21.50;44.30;;;;;;5135494;27;20532;-60
2021/12/15 08:48:48;;;;;;;;;;;21.50;44.30;;;;;;5135313;27;19927;-60
2021/12/15 08:51:16;;;;;;;;;;;21.50;44.20;;;;;;5144159;27;20006;-60
2021/12/15 08:53:43;;;;;;;;;;;21.50;44.30;;;;;;5141640;27;19988;-61
2021/12/15 08:56:09;;;;;;;;;;;21.50;44.30;;;;;;5141407;27;20385;-60
2021/12/15 08:58:35;;;;;;;;;;;21.50;44.30;;;;;;5143461;27;19911;-60
2021/12/15 09:01:01;;;;;;;;;;;21.50;44.20;;;;;;5124662;27;19920;-59
2021/12/15 09:03:27;;;;;;;;;;;21.50;44.30;;;;;;5143759;27;19919;-60
2021/12/15 09:05:53;;;;;;;;;;;21.60;44.30;;;;;;5146468;27;19919;-59
2021/12/15 09:08:20;;;;;;;;;;;21.60;44.40;;;;;;5139534;27;19912;-60
2021/12/15 09:10:46;;;;;;;;;;;21.70;44.20;;;;;;5138221;27;19919;-60
2021/12/15 09:13:12;;;;;;;;;;;21.70;44.10;;;;;;5144986;27;19912;-60
2021/12/15 09:15:38;;;;;;;;;;;21.70;44.20;;;;;;5125141;27;19911;-60
2021/12/15 09:18:03;;;;;;;;;;;21.70;44.40;;;;;;5138055;27;19946;-60
2021/12/15 09:20:30;;;;;;;;;;;21.60;44.30;;;;;;5134315;27;19916;-60
2021/12/15 09:22:57;;;;;;;;;;;21.60;44.40;;;;;;5141435;27;19919;-60
2021/12/15 09:25:23;;;;;;;;;;;21.60;44.30;;;;;;5135230;27;19931;-59
2021/12/15 09:27:48;;;;;;;;;;;21.70;44.30;;;;;;5142181;27;19911;-61
2021/12/15 09:30:16;;;;;;;;;;;21.70;44.40;;;;;;5139157;27;20398;-59
2021/12/15 09:32:41;;;;;;;;;;;21.70;44.30;;;;;;5136563;27;20366;-60
2021/12/15 09:35:07;;;;;;;;;;;21.70;44.20;;;;;;5139400;27;19912;-60
2021/12/15 09:37:33;;;;;;;;;;;21.70;44.20;;;;;;5144080;27;19972;-59
2021/12/15 09:39:59;;;;;;;;;;;21.50;44.60;;;;;;5124008;27;19963;-60
2021/12/15 09:42:31;;;;;;;;;;;21.40;44.70;;;;;;5138766;27;20074;-60
2021/12/15 09:45:03;;;;;;;;;;;21.50;44.70;;;;;;5136267;27;19911;-61
2021/12/15 10:04:16;;;;;;;;;;;21.80;44.20;;;;;;5141977;27;19956;-63
2021/12/15 10:17:33;;;;;;;;;;;21.90;44.30;;;;;;5144836;27;20478;-62
2021/12/15 10:20:00;;;;;;;;;;;21.90;44.20;;;;;;5147319;27;19912;-63
2021/12/15 10:22:38;;;;;;;;;;;21.90;44.20;;;;;;5134319;27;20002;-64
2021/12/15 10:25:13;;;;;;;;;;;21.90;44.30;;;;;;5141851;27;19914;-61
2021/12/15 10:27:41;;;;;;;;;;;21.90;44.30;;;;;;5144789;27;20358;-61
2021/12/15 10:30:09;;;;;;;;;;;22.00;44.00;;;;;;5150895;27;19918;-62
2021/12/15 10:32:36;;;;;;;;;;;22.00;44.10;;;;;;5139668;27;19946;-61
2021/12/15 10:35:13;;;;;;;;;;;22.00;44.30;;;;;;5146949;27;19915;-62
2021/12/15 10:37:39;;;;;;;;;;;22.00;44.30;;;;;;5140417;27;19919;-61
2021/12/15 10:40:23;;;;;;;;;;;22.00;44.30;;;;;;5144894;27;19911;-62
2021/12/15 10:42:59;;;;;;;;;;;22.00;44.30;;;;;;5136167;27;19995;-62
2021/12/15 10:45:24;;;;;;;;;;;22.00;44.30;;;;;;5143947;27;19912;-61
2021/12/15 10:47:50;;;;;;;;;;;22.00;44.30;;;;;;5143735;27;19919;-60
2021/12/15 10:50:18;;;;;;;;;;;22.00;44.30;;;;;;5138014;27;19912;-61
2021/12/15 10:52:51;;;;;;;;;;;22.00;44.30;;;;;;5121565;28;19919;-61
2021/12/15 10:55:16;;;;;;;;;;;22.00;44.30;;;;;;5135999;27;20315;-61
2021/12/15 10:57:44;;;;;;;;;;;22.00;44.30;;;;;;5142640;27;20006;-61
2021/12/15 11:00:16;;;;;;;;;;;22.00;44.30;;;;;;5139978;27;19919;-61
2021/12/15 11:02:42;;;;;;;;;;;22.00;44.30;;;;;;5137680;27;20321;-62
2021/12/15 11:05:08;;;;;;;;;;;22.00;44.30;;;;;;5147366;27;20482;-62
2021/12/15 11:07:33;;;;;;;;;;;22.00;44.30;;;;;;5137501;27;20267;-61
2021/12/15 11:10:05;;;;;;;;;;;22.00;44.30;;;;;;5144012;27;19916;-61
2021/12/15 11:12:33;;;;;;;;;;;22.00;44.30;;;;;;5145685;27;19950;-60
2021/12/15 11:15:02;;;;;;;;;;;22.00;44.30;;;;;;5151342;27;20358;-60
2021/12/15 11:17:29;;;;;;;;;;;22.10;44.10;;;;;;5142608;27;19919;-60
2021/12/15 11:19:55;;;;;;;;;;;22.10;44.30;;;;;;5141413;27;19958;-60
2021/12/15 11:22:35;;;;;;;;;;;22.10;44.20;;;;;;5141426;27;20027;-60
2021/12/15 11:25:02;;;;;;;;;;;22.10;44.30;;;;;;5144011;27;19992;-61
2021/12/15 11:27:28;;;;;;;;;;;22.20;44.10;;;;;;5139531;27;19911;-62
2021/12/15 11:29:54;;;;;;;;;;;22.20;44.10;;;;;;5153018;27;19911;-61
2021/12/15 11:32:39;;;;;;;;;;;22.10;44.20;;;;;;5145395;27;19956;-62
2021/12/15 11:35:07;;;;;;;;;;;22.10;44.30;;;;;;5137859;27;19962;-60
2021/12/15 11:37:47;;;;;;;;;;;22.10;44.30;;;;;;5147149;27;19920;-60
2021/12/15 11:40:14;;;;;;;;;;;22.10;44.30;;;;;;5136699;27;19916;-60
2021/12/15 11:42:40;;;;;;;;;;;22.10;44.40;;;;;;5151604;27;19967;-60
2021/12/15 11:45:07;;;;;;;;;;;22.10;44.30;;;;;;5140507;27;19915;-60
2021/12/15 11:47:33;;;;;;;;;;;22.10;44.40;;;;;;5142398;27;20445;-60
2021/12/15 11:50:05;;;;;;;;;;;22.10;44.30;;;;;;5145004;27;20027;-60
2021/12/15 11:52:37;;;;;;;;;;;22.10;44.30;;;;;;5139084;27;19919;-61
2021/12/15 11:55:02;;;;;;;;;;;22.10;44.40;;;;;;5150803;27;19916;-60
2021/12/15 11:57:29;;;;;;;;;;;22.10;44.30;;;;;;5137445;27;20336;-60
2021/12/15 12:00:03;;;;;;;;;;;22.20;44.40;;;;;;5140303;27;20359;-61
2021/12/15 12:02:30;;;;;;;;;;;22.20;44.40;;;;;;5136860;27;19918;-61
2021/12/15 12:05:02;;;;;;;;;;;22.20;44.40;;;;;;5139255;27;20002;-60
2021/12/15 12:07:27;;;;;;;;;;;22.20;44.40;;;;;;5148994;27;19965;-60
2021/12/15 12:09:59;;;;;;;;;;;22.20;44.40;;;;;;5142115;27;19955;-60
2021/12/15 12:12:30;;;;;;;;;;;22.20;44.40;;;;;;5143270;27;19947;-60
2021/12/15 12:14:56;;;;;;;;;;;22.10;44.40;;;;;;5140273;27;19961;-61
2021/12/15 12:17:27;;;;;;;;;;;22.20;44.40;;;;;;5140036;27;19971;-61
2021/12/15 12:20:18;;;;;;;;;;;22.20;44.40;;;;;;5141396;27;19911;-59
2021/12/15 12:22:45;;;;;;;;;;;22.20;44.50;;;;;;5141566;27;19911;-60
2021/12/15 12:25:16;;;;;;;;;;;22.30;44.20;;;;;;5146451;27;20408;-60
2021/12/15 12:27:43;;;;;;;;;;;22.20;44.40;;;;;;5148572;27;19932;-60
2021/12/15 12:30:12;;;;;;;;;;;22.20;44.40;;;;;;5146620;27;20274;-60
2021/12/15 12:32:38;;;;;;;;;;;22.20;44.40;;;;;;5139411;27;19954;-60
2021/12/15 12:35:05;;;;;;;;;;;22.20;44.40;;;;;;5152150;27;19911;-60
2021/12/15 12:37:30;;;;;;;;;;;22.10;44.40;;;;;;5144359;27;19919;-60
2021/12/15 12:39:58;;;;;;;;;;;21.90;44.60;;;;;;5143533;27;19955;-60
2021/12/15 12:42:29;;;;;;;;;;;21.80;45.10;;;;;;5141531;27;19911;-60
2021/12/15 12:45:07;;;;;;;;;;;22.00;45.10;;;;;;5121037;27;19929;-59
2021/12/15 12:47:39;;;;;;;;;;;22.00;44.80;;;;;;5136548;27;19912;-59
2021/12/15 12:50:37;;;;;;;;;;;22.10;44.80;;;;;;5136765;27;19912;-60
2021/12/15 13:01:04;;;;;;;;;;;22.20;44.40;;;;;;5146043;27;19919;-60
2021/12/15 13:03:33;;;;;;;;;;;22.20;44.40;;;;;;5144681;27;20385;-60
2021/12/15 13:05:59;;;;;;;;;;;22.20;44.30;;;;;;5138010;27;20389;-60
2021/12/15 13:08:32;;;;;;;;;;;22.20;44.40;;;;;;5142937;27;19911;-60
2021/12/15 13:11:01;;;;;;;;;;;22.30;44.20;;;;;;5150361;27;19911;-61
2021/12/15 13:13:29;;;;;;;;;;;22.30;44.50;;;;;;5137440;27;19956;-60
2021/12/15 13:16:15;;;;;;;;;;;22.20;44.50;;;;;;5134744;27;20439;-59
2021/12/15 13:18:45;;;;;;;;;;;22.20;44.50;;;;;;5140816;27;19915;-60
2021/12/15 13:21:13;;;;;;;;;;;22.20;44.70;;;;;;5136928;27;20274;-60
2021/12/15 13:23:44;;;;;;;;;;;22.20;44.60;;;;;;5126065;27;20301;-59
2021/12/15 13:29:14;;;;;;;;;;;22.20;44.60;;;;;;5150355;27;20018;-60
2021/12/15 13:31:50;;;;;;;;;;;22.30;44.40;;;;;;5119572;27;19911;-60
2021/12/15 13:34:32;;;;;;;;;;;22.20;44.60;;;;;;5138867;27;19924;-60
2021/12/15 13:36:59;;;;;;;;;;;22.20;44.60;;;;;;5135895;27;19943;-59
2021/12/15 13:39:25;;;;;;;;;;;22.20;44.60;;;;;;5134860;27;20256;-59
2021/12/15 13:44:38;;;;;;;;;;;22.20;44.70;;;;;;5134757;27;19915;-59
2021/12/15 13:47:09;;;;;;;;;;;22.20;44.70;;;;;;5140033;27;19915;-58
2021/12/15 13:49:41;;;;;;;;;;;22.20;44.60;;;;;;5145050;27;19998;-59
2021/12/15 13:52:14;;;;;;;;;;;22.20;44.60;;;;;;5150540;27;19911;-60
2021/12/15 13:54:40;;;;;;;;;;;22.20;44.70;;;;;;5142678;27;19985;-60
2021/12/15 13:57:11;;;;;;;;;;;22.20;44.60;;;;;;5144444;27;20025;-58
2021/12/15 13:59:37;;;;;;;;;;;22.20;44.70;;;;;;5138534;27;20325;-58
2021/12/15 14:02:21;;;;;;;;;;;22.20;44.70;;;;;;5137545;27;19918;-59
2021/12/15 14:04:51;;;;;;;;;;;22.20;44.60;;;;;;5141322;27;19970;-59
2021/12/15 14:07:55;;;;;;;;;;;22.20;44.70;;;;;;5141803;27;20007;-59
2021/12/15 14:10:24;;;;;;;;;;;22.20;44.70;;;;;;5013062;28;19913;-60
2021/12/15 14:12:56;;;;;;;;;;;22.20;44.80;;;;;;5021499;28;19917;-60
2021/12/15 14:15:25;;;;;;;;;;;22.20;44.80;;;;;;5075206;27;19912;-60
2021/12/15 14:17:56;;;;;;;;;;;22.20;44.80;;;;;;5137941;27;20018;-61
2021/12/15 14:20:21;;;;;;;;;;;22.20;44.90;;;;;;5153206;27;19919;-60
2021/12/15 14:22:54;;;;;;;;;;;22.10;44.80;;;;;;5133140;27;19911;-60
2021/12/15 14:25:19;;;;;;;;;;;22.20;44.90;;;;;;5133278;27;19912;-60
2021/12/15 14:27:44;;;;;;;;;;;22.10;44.80;;;;;;5147475;27;19939;-59
2021/12/15 14:30:10;;;;;;;;;;;22.10;44.90;;;;;;5133257;27;19908;-60
2021/12/15 14:32:36;;;;;;;;;;;22.10;44.80;;;;;;5132731;27;19956;-59
2021/12/15 14:35:01;;;;;;;;;;;22.10;44.80;;;;;;5132221;27;19907;-59
2021/12/15 14:37:26;;;;;;;;;;;22.10;44.80;;;;;;5128864;27;19927;-59
2021/12/15 14:39:53;;;;;;;;;;;22.10;44.80;;;;;;5133665;27;19911;-60
2021/12/15 14:42:23;;;;;;;;;;;22.10;44.80;;;;;;5114508;28;19942;-61
2021/12/15 14:44:50;;;;;;;;;;;22.10;44.80;;;;;;5131952;27;20247;-61
2021/12/15 14:47:18;;;;;;;;;;;22.10;44.80;;;;;;5149918;27;19994;-61
2021/12/15 14:49:57;;;;;;;;;;;22.10;44.70;;;;;;5136289;27;19931;-61
2021/12/15 14:52:24;;;;;;;;;;;22.10;44.70;;;;;;5139851;27;19954;-60
2021/12/15 14:54:52;;;;;;;;;;;22.00;44.70;;;;;;5122814;28;19918;-60
2021/12/15 14:57:23;;;;;;;;;;;22.10;44.70;;;;;;5136014;27;19977;-61
2021/12/15 14:59:50;;;;;;;;;;;22.00;44.70;;;;;;5133084;27;19920;-60
2021/12/15 15:02:20;;;;;;;;;;;22.10;44.60;;;;;;5136481;27;19958;-60
2021/12/15 15:04:48;;;;;;;;;;;22.10;44.60;;;;;;5136591;27;19970;-60
2021/12/15 15:07:15;;;;;;;;;;;22.10;44.50;;;;;;5136016;27;19935;-60
2021/12/15 15:09:43;;;;;;;;;;;22.00;44.50;;;;;;5138202;27;19911;-60
2021/12/15 15:12:19;;;;;;;;;;;22.00;44.60;;;;;;5135315;27;19911;-60
2021/12/15 15:14:45;;;;;;;;;;;22.00;44.60;;;;;;5147272;27;20313;-60
2021/12/15 15:17:28;;;;;;;;;;;22.00;44.60;;;;;;5137996;27;19971;-61
2021/12/15 15:19:55;;;;;;;;;;;22.00;44.70;;;;;;5135426;27;19911;-60
2021/12/15 15:22:23;;;;;;;;;;;22.00;44.60;;;;;;5135677;27;20327;-60
2021/12/15 15:24:50;;;;;;;;;;;22.00;44.60;;;;;;5140320;27;19919;-60
2021/12/15 15:27:17;;;;;;;;;;;22.00;44.60;;;;;;5119105;27;19911;-60
2021/12/15 15:29:54;;;;;;;;;;;22.00;44.60;;;;;;5135695;27;20014;-61
2021/12/15 15:32:22;;;;;;;;;;;22.00;44.60;;;;;;5137272;27;19916;-60
2021/12/15 15:34:49;;;;;;;;;;;22.00;44.50;;;;;;5139461;27;19911;-59
2021/12/15 15:37:17;;;;;;;;;;;22.00;44.50;;;;;;5126510;27;19919;-60
2021/12/15 15:39:43;;;;;;;;;;;22.10;44.70;;;;;;5145527;27;20371;-60
2021/12/15 15:42:17;;;;;;;;;;;22.00;44.70;;;;;;5136007;27;19922;-60
2021/12/15 15:44:43;;;;;;;;;;;22.00;44.50;;;;;;5135880;27;20002;-60